CYNL

METAR CYNL 271600Z AUTO 20007KT 9SM CLR 26/13 A2993 RMK AO1 SLP119
METAR
LOCATION
CYNL
DATE - TIME
271600Z
WIND
200 TRUE @ 7 KNOTS
VISIBILITY
9SM
RUNWAY VISUAL RANGE
NOT REPORTED
WEATHER
CLOUDINESS
CLR
TEMP / DEWPOINT
26 ºC / 13 ºC
ALTIMETER
29.93 in. Hg
RECENT WEATHER
NOT REPORTED
WIND SHEAR
NOT REPORTED
REMARKS
RMK AO1 SLP119
SEA LEVEL PRESSURE: hPa

CYNL

METAR CYNL 271500Z AUTO 23004KT 9SM CLR 24/13 A2994 RMK AO1 SLP123
METAR
LOCATION
CYNL
DATE - TIME
271500Z
WIND
230 TRUE @ 4 KNOTS
VISIBILITY
9SM
RUNWAY VISUAL RANGE
NOT REPORTED
WEATHER
CLOUDINESS
CLR
TEMP / DEWPOINT
24 ºC / 13 ºC
ALTIMETER
29.94 in. Hg
RECENT WEATHER
NOT REPORTED
WIND SHEAR
NOT REPORTED
REMARKS
RMK AO1 SLP123
SEA LEVEL PRESSURE: hPa

CYNL

METAR CYNL 271400Z AUTO 23005KT 9SM CLR 22/14 A2995 RMK AO1 SLP127
METAR
LOCATION
CYNL
DATE - TIME
271400Z
WIND
230 TRUE @ 5 KNOTS
VISIBILITY
9SM
RUNWAY VISUAL RANGE
NOT REPORTED
WEATHER
CLOUDINESS
CLR
TEMP / DEWPOINT
22 ºC / 14 ºC
ALTIMETER
29.95 in. Hg
RECENT WEATHER
NOT REPORTED
WIND SHEAR
NOT REPORTED
REMARKS
RMK AO1 SLP127
SEA LEVEL PRESSURE: hPa

Your time UTC time
 
 
Weather data provided by AXYS Technologies Inc., www.axystechnologies.com
 
Station History